Qing Ping Shan — VROK6 — position and weather

sailwx.info

Track history (hours):
 
Tides and Currents Weather Stations Pressure Air Temp Water Temp Dewpoint Dewpoint Depression Visibility Wind Speed Wind Dir Waves Ship Positions

Qing Ping Shan

Last reported at 2018-Feb-17 19:36 UTC. Time now 2018-Feb-19 01:45 UTC.
Position N 36°57' E 001°06'.

Length 199 m; draft 12.2 m.

Type: Cargo ship. MMSI: 477078500.

Date/timePositionNaut miles runAvg speedWind from/ knotsBaromVisibWave heightAir tempDewpointWater temp
2018-Feb-17 19:36N 36°57' E 001°06'512.5
2018-Feb-17 19:14N 36°56' E 000°60'312.4
2018-Feb-17 19:00N 36°56' E 000°56'612.3
2018-Feb-17 18:29N 36°55' E 000°49'611.9
2018-Feb-17 18:00N 36°54' E 000°41'611.7
2018-Feb-17 17:30N 36°53' E 000°34'611.5
2018-Feb-17 16:59N 36°52' E 000°27'911.7
2018-Feb-17 16:15N 36°50' E 000°16'312.3
2018-Feb-17 16:00N 36°49' E 000°13'712.3
2018-Feb-17 15:28N 36°48' E 000°05'266 6.6
2018-Feb-15 23:19N 36°08' W 005°23'0 0.2
2018-Feb-15 22:52N 36°08' W 005°23'0 0.1
2018-Feb-15 22:28N 36°08' W 005°23'0 0.1
2018-Feb-15 21:58N 36°08' W 005°23'0 0.1
2018-Feb-15 21:25N 36°08' W 005°23'0 0.1
2018-Feb-15 20:58N 36°08' W 005°23'0 0.2
2018-Feb-15 20:13N 36°08' W 005°23'0 0.1
2018-Feb-15 19:55N 36°08' W 005°23'1 3.2
2018-Feb-15 19:30N 36°07' W 005°22'3 5.4
2018-Feb-15 19:00N 36°05' W 005°20'1 2.4
2018-Feb-15 18:30N 36°04' W 005°19'1 1.5
2018-Feb-15 18:00N 36°05' W 005°18'2 3.6
2018-Feb-15 17:24N 36°03' W 005°19'410.1
2018-Feb-15 17:00N 36°00' W 005°23'611.1
2018-Feb-15 16:30N 35°57' W 005°29'  
Track history (hours):
 
Tides and Currents Weather Stations Pressure Air Temp Water Temp Dewpoint Dewpoint Depression Visibility Wind Speed Wind Dir Waves Ship Positions

Qing Ping Shan

Last reported at 2018-Feb-17 19:36 UTC. Time now 2018-Feb-19 01:45 UTC.
Position N 36°57' E 001°06'.

Length 199 m; draft 12.2 m.

Type: Cargo ship. MMSI: 477078500.

Date/timePositionNaut miles runAvg speedWind from/ knotsBaromVisibWave heightAir tempDewpointWater temp
2018-Feb-17 19:36N 36°57' E 001°06'512.5
2018-Feb-17 19:14N 36°56' E 000°60'312.4
2018-Feb-17 19:00N 36°56' E 000°56'612.3
2018-Feb-17 18:29N 36°55' E 000°49'611.9
2018-Feb-17 18:00N 36°54' E 000°41'611.7
2018-Feb-17 17:30N 36°53' E 000°34'611.5
2018-Feb-17 16:59N 36°52' E 000°27'911.7
2018-Feb-17 16:15N 36°50' E 000°16'312.3
2018-Feb-17 16:00N 36°49' E 000°13'712.3
2018-Feb-17 15:28N 36°48' E 000°05'266 6.6
2018-Feb-15 23:19N 36°08' W 005°23'0 0.2
2018-Feb-15 22:52N 36°08' W 005°23'0 0.1
2018-Feb-15 22:28N 36°08' W 005°23'0 0.1
2018-Feb-15 21:58N 36°08' W 005°23'0 0.1
2018-Feb-15 21:25N 36°08' W 005°23'0 0.1
2018-Feb-15 20:58N 36°08' W 005°23'0 0.2
2018-Feb-15 20:13N 36°08' W 005°23'0 0.1
2018-Feb-15 19:55N 36°08' W 005°23'1 3.2
2018-Feb-15 19:30N 36°07' W 005°22'3 5.4
2018-Feb-15 19:00N 36°05' W 005°20'1 2.4
2018-Feb-15 18:30N 36°04' W 005°19'1 1.5
2018-Feb-15 18:00N 36°05' W 005°18'2 3.6
2018-Feb-15 17:24N 36°03' W 005°19'410.1
2018-Feb-15 17:00N 36°00' W 005°23'611.1
2018-Feb-15 16:30N 35°57' W 005°29'  

Dump ship's entire track history